Time;durP1;ratioP1;P1;durP2;ratioP2;P2;SDS_P1;SDS_P2;PMS_P1;PMS_P2;Temp;Humidity;BMP_temperature;BMP_pressure;BME280_temperature;BME280_humidity;BME280_pressure;Samples;Min_cycle;Max_cycle;Signal;HPM_P1;HPM_P2
2022/01/15 00:01:53;;;;;;;3.05;1.90;;;;;;;19.80;43.99;98045.97;13065879;22;20018;-54
2022/01/15 00:07:12;;;;;;;3.03;1.77;;;;;;;19.78;43.91;98032.75;13044613;22;20068;-55
2022/01/15 00:12:39;;;;;;;3.00;2.00;;;;;;;19.77;43.91;98030.34;13045357;22;20068;-54
2022/01/15 00:18:09;;;;;;;3.25;1.70;;;;;;;19.74;43.98;98024.44;13045440;22;20022;-54
2022/01/15 00:23:29;;;;;;;3.28;1.75;;;;;;;19.74;43.85;98026.34;13045430;22;20015;-54
2022/01/15 00:28:48;;;;;;;2.85;1.80;;;;;;;19.73;43.78;98014.69;13045392;22;20011;-54
2022/01/15 00:34:07;;;;;;;4.13;1.70;;;;;;;19.70;43.82;98015.28;13045186;22;20019;-54
2022/01/15 00:39:27;;;;;;;2.95;1.50;;;;;;;19.70;43.71;98009.06;13045149;22;20015;-52
2022/01/15 00:44:49;;;;;;;1.92;1.60;;;;;;;19.68;43.65;98013.94;13044717;22;20016;-54
2022/01/15 00:50:10;;;;;;;2.22;1.63;;;;;;;19.68;43.76;98019.34;13065763;22;20450;-53
2022/01/15 00:55:30;;;;;;;2.90;1.60;;;;;;;19.67;43.69;98015.84;13069045;22;20478;-54
2022/01/15 01:00:50;;;;;;;2.00;1.70;;;;;;;19.65;43.67;98009.13;13048627;22;20071;-53
2022/01/15 01:06:09;;;;;;;2.58;1.58;;;;;;;19.64;43.56;98010.22;13048331;22;20038;-54
2022/01/15 01:11:41;;;;;;;3.60;1.73;;;;;;;19.62;43.55;97996.19;13047907;22;20049;-54
2022/01/15 01:22:56;;;;;;;2.22;1.60;;;;;;;19.60;43.56;98003.81;13047811;22;20026;-54
2022/01/15 01:28:25;;;;;;;1.88;1.52;;;;;;;19.59;43.52;97996.81;13048114;22;20433;-54
2022/01/15 01:33:49;;;;;;;1.45;1.30;;;;;;;19.57;43.40;97997.09;13047945;22;20038;-54
2022/01/15 01:39:15;;;;;;;2.08;1.38;;;;;;;19.55;43.20;97991.19;13068772;22;20015;-53
2022/01/15 01:44:40;;;;;;;2.08;1.35;;;;;;;19.53;43.39;97988.78;13047176;22;20015;-52
2022/01/15 01:49:59;;;;;;;1.65;1.25;;;;;;;19.53;43.27;97987.97;13047742;22;20019;-54
2022/01/15 01:55:22;;;;;;;1.25;1.15;;;;;;;19.51;43.31;97976.66;13046411;22;20019;-54
2022/01/15 02:00:42;;;;;;;1.80;1.20;;;;;;;19.50;43.30;97981.28;13047936;22;20019;-54
2022/01/15 02:06:01;;;;;;;1.60;1.27;;;;;;;19.48;43.32;97964.53;13046456;22;20467;-54
2022/01/15 02:11:21;;;;;;;1.33;1.23;;;;;;;19.48;43.29;97980.75;13047531;22;20019;-54
2022/01/15 02:16:41;;;;;;;2.00;1.45;;;;;;;19.46;43.29;97966.72;13046668;22;20068;-54
2022/01/15 02:27:38;;;;;;;1.73;1.13;;;;;;;19.45;43.28;97983.25;13047367;22;20011;-54
2022/01/15 02:32:58;;;;;;;1.63;1.30;;;;;;;19.43;43.25;97975.44;13067756;22;20015;-54
2022/01/15 02:38:17;;;;;;;1.42;1.30;;;;;;;19.40;43.15;97978.69;13046577;22;20042;-55
2022/01/15 02:43:37;;;;;;;2.15;1.25;;;;;;;19.41;43.04;97974.13;13045878;22;20019;-53
2022/01/15 02:49:00;;;;;;;1.08;1.00;;;;;;;19.39;43.00;97965.50;13045491;22;20015;-54
2022/01/15 02:54:19;;;;;;;2.50;1.20;;;;;;;19.37;43.24;97968.50;13066899;22;20022;-54
2022/01/15 02:59:40;;;;;;;1.63;1.17;;;;;;;19.36;43.29;97964.19;13046311;22;20024;-54
2022/01/15 03:05:00;;;;;;;1.40;1.30;;;;;;;19.34;42.94;97952.88;13045765;22;20016;-55
2022/01/15 03:10:20;;;;;;;2.38;1.13;;;;;;;19.32;42.96;97946.94;13046194;22;20341;-54
2022/01/15 03:15:39;;;;;;;1.50;1.10;;;;;;;19.32;43.04;97949.66;13045803;22;20015;-52
2022/01/15 03:20:59;;;;;;;1.15;1.02;;;;;;;19.30;42.97;97943.75;13046081;22;20022;-54
2022/01/15 03:26:18;;;;;;;1.00;0.90;;;;;;;19.30;42.86;97943.75;13045949;22;20011;-54
2022/01/15 03:31:38;;;;;;;1.30;1.10;;;;;;;19.29;42.95;97950.25;13045471;22;20023;-54
2022/01/15 03:36:57;;;;;;;1.65;1.20;;;;;;;19.27;42.92;97955.94;13066389;22;20015;-54
2022/01/15 03:42:17;;;;;;;2.25;1.20;;;;;;;19.26;42.88;97948.94;13046229;22;20019;-54
2022/01/15 03:47:37;;;;;;;1.27;1.10;;;;;;;19.25;42.76;97949.22;13045523;22;20015;-55
2022/01/15 03:52:57;;;;;;;1.55;1.17;;;;;;;19.24;42.82;97961.13;13045671;22;20019;-55
2022/01/15 03:58:17;;;;;;;1.17;1.08;;;;;;;19.22;42.70;97957.94;13066149;22;20011;-54
2022/01/15 04:03:38;;;;;;;1.48;1.10;;;;;;;19.20;42.90;97952.81;13045088;22;20015;-53
2022/01/15 04:08:59;;;;;;;1.15;0.95;;;;;;;19.20;42.88;97947.41;13066013;22;20073;-54
2022/01/15 04:14:18;;;;;;;1.25;1.02;;;;;;;19.18;42.75;97955.00;13045106;22;20544;-55
2022/01/15 04:19:40;;;;;;;1.38;1.10;;;;;;;19.17;42.80;97953.41;13044601;22;20015;-55
2022/01/15 04:24:59;;;;;;;1.08;0.90;;;;;;;19.15;42.67;97956.41;13045179;22;20443;-54
2022/01/15 04:30:21;;;;;;;1.35;1.15;;;;;;;19.13;42.81;97952.38;13048135;22;20015;-53
2022/01/15 04:35:40;;;;;;;2.08;0.90;;;;;;;19.12;42.77;97942.66;13069627;22;20022;-54
2022/01/15 04:41:00;;;;;;;1.17;1.00;;;;;;;19.11;42.83;97949.97;13048990;22;20072;-54
2022/01/15 04:46:20;;;;;;;0.85;0.80;;;;;;;19.10;42.82;97950.28;13069646;22;20021;-54
2022/01/15 04:51:39;;;;;;;1.13;1.02;;;;;;;19.09;42.66;97948.66;13049085;22;20084;-54
2022/01/15 04:56:59;;;;;;;1.25;1.00;;;;;;;19.07;42.72;97965.16;13048781;22;20021;-54
2022/01/15 05:02:18;;;;;;;1.42;1.10;;;;;;;19.07;42.70;97956.25;13047704;22;20019;-54
2022/01/15 05:07:38;;;;;;;1.23;1.10;;;;;;;19.06;42.70;97960.84;13069483;22;20098;-54
2022/01/15 05:13:01;;;;;;;0.98;0.82;;;;;;;19.04;42.74;97948.75;13047821;22;20076;-54
2022/01/15 05:18:20;;;;;;;1.15;0.90;;;;;;;19.03;42.69;97952.53;13068260;22;20016;-54
2022/01/15 05:23:39;;;;;;;1.33;1.10;;;;;;;19.01;42.54;97957.41;13047090;22;20015;-55
2022/01/15 05:28:59;;;;;;;1.05;0.95;;;;;;;18.99;42.60;97973.91;13048035;22;20529;-54
2022/01/15 05:34:19;;;;;;;0.90;0.80;;;;;;;19.00;42.61;97964.72;13024367;22;20025;-53
2022/01/15 05:39:39;;;;;;;1.00;0.88;;;;;;;18.96;42.58;97959.09;13047147;22;20023;-53
2022/01/15 05:44:58;;;;;;;0.98;0.88;;;;;;;18.95;42.53;97962.91;13047917;22;20015;-53
2022/01/15 05:50:17;;;;;;;1.00;0.90;;;;;;;18.95;42.53;97962.91;13068635;22;20015;-55
2022/01/15 05:55:37;;;;;;;1.30;0.90;;;;;;;18.93;42.56;97953.47;13047595;22;20015;-54
2022/01/15 06:00:56;;;;;;;1.50;1.10;;;;;;;18.94;42.53;97947.00;13047486;22;20453;-55
2022/01/15 06:06:15;;;;;;;1.05;0.90;;;;;;;18.94;42.49;97947.00;13046045;22;20085;-54
2022/01/15 06:11:37;;;;;;;1.08;0.95;;;;;;;18.96;42.46;97939.41;13067344;22;20015;-55
2022/01/15 06:16:58;;;;;;;1.08;0.80;;;;;;;18.98;42.68;97939.91;13047073;22;20022;-54
2022/01/15 06:22:17;;;;;;;1.00;0.90;;;;;;;18.99;42.64;97943.41;13067061;22;20015;-54
2022/01/15 06:27:37;;;;;;;0.95;0.80;;;;;;;19.00;42.69;97936.94;13067877;22;20022;-54
2022/01/15 06:32:57;;;;;;;2.15;1.00;;;;;;;19.01;42.80;97928.50;13049036;22;20022;-54
2022/01/15 06:38:16;;;;;;;0.80;0.80;;;;;;;19.01;42.87;97936.59;13069989;22;20384;-54
2022/01/15 06:43:36;;;;;;;0.98;0.77;;;;;;;19.03;42.93;97957.94;13049282;22;20015;-54
2022/01/15 06:48:55;;;;;;;0.88;0.88;;;;;;;19.04;43.06;97956.84;13065789;22;20034;-54
2022/01/15 06:54:14;;;;;;;0.85;0.85;;;;;;;19.04;43.02;97954.16;13048547;22;20066;-54
2022/01/15 06:59:34;;;;;;;1.10;1.00;;;;;;;19.05;43.24;97959.25;13049027;22;20024;-54
2022/01/15 07:04:54;;;;;;;1.23;0.80;;;;;;;19.07;43.53;97972.44;13069278;22;20094;-54
2022/01/15 07:10:14;;;;;;;1.42;0.90;;;;;;;19.10;43.60;97963.78;13048879;22;20015;-55
2022/01/15 07:15:34;;;;;;;0.75;0.75;;;;;;;19.14;43.61;97975.59;13069311;22;20117;-55
2022/01/15 07:20:54;;;;;;;1.48;1.38;;;;;;;19.13;41.42;97977.50;13045777;22;20023;-55
2022/01/15 07:26:14;;;;;;;3.00;1.20;;;;;;;19.18;42.71;97979.31;13044753;22;20015;-54
2022/01/15 07:31:33;;;;;;;1.40;1.02;;;;;;;19.21;42.85;97986.03;13043947;22;20035;-52
2022/01/15 07:36:57;;;;;;;1.80;0.90;;;;;;;19.26;43.11;97978.66;13044710;22;20022;-54
2022/01/15 07:42:16;;;;;;;1.55;1.00;;;;;;;19.30;42.95;97973.47;13044475;22;20073;-54
2022/01/15 07:47:37;;;;;;;1.25;1.00;;;;;;;19.35;43.02;97973.41;13020064;22;20094;-53
2022/01/15 07:52:57;;;;;;;2.28;1.20;;;;;;;19.38;42.86;97975.50;13062034;22;20011;-53
2022/01/15 07:58:17;;;;;;;1.40;1.13;;;;;;;19.44;42.97;97984.31;13065372;22;20443;-55
2022/01/15 08:03:36;;;;;;;1.52;1.40;;;;;;;19.44;41.71;97992.44;13043527;22;20019;-53
2022/01/15 08:08:56;;;;;;;1.83;1.40;;;;;;;19.48;42.44;97999.69;13048631;22;20405;-55
2022/01/15 08:14:16;;;;;;;2.00;1.30;;;;;;;19.53;42.41;98006.91;13049249;22;20704;-53
2022/01/15 08:19:35;;;;;;;1.58;1.25;;;;;;;19.59;42.37;97996.81;13048124;22;20016;-54
2022/01/15 08:24:55;;;;;;;3.35;1.40;;;;;;;19.63;42.68;98011.34;13049146;22;20015;-54
2022/01/15 08:30:15;;;;;;;3.17;1.40;;;;;;;19.68;42.86;98020.16;13047397;22;20077;-54
2022/01/15 08:35:35;;;;;;;2.13;1.20;;;;;;;19.74;42.64;98029.03;13047361;22;20015;-54
2022/01/15 08:40:54;;;;;;;2.38;1.30;;;;;;;19.78;42.46;98026.53;13069578;22;20033;-53
2022/01/15 08:46:16;;;;;;;3.13;1.50;;;;;;;19.82;42.65;98028.34;13048343;22;20015;-53
2022/01/15 08:51:36;;;;;;;2.92;1.40;;;;;;;19.86;42.53;98029.38;13067190;22;20015;-54
2022/01/15 08:56:55;;;;;;;3.30;1.30;;;;;;;19.91;42.42;98018.44;13069423;22;20619;-51
2022/01/15 09:02:15;;;;;;;7.72;3.38;;;;;;;19.95;41.94;98008.66;13048151;22;20024;-52
2022/01/15 09:07:35;;;;;;;8.98;2.72;;;;;;;20.00;42.29;98018.59;13048000;22;20023;-53
2022/01/15 09:12:54;;;;;;;9.93;3.70;;;;;;;20.04;42.37;98021.50;13068680;22;20015;-52
2022/01/15 09:18:15;;;;;;;16.60;4.47;;;;;;;20.07;41.26;98026.31;13048302;22;20015;-51
2022/01/15 09:23:35;;;;;;;14.90;5.15;;;;;;;20.10;42.16;98031.91;13048525;22;20015;-50
2022/01/15 09:34:34;;;;;;;10.00;3.67;;;;;;;20.21;42.01;98029.03;13068748;22;20027;-52
2022/01/15 09:39:54;;;;;;;10.43;3.03;;;;;;;20.25;42.28;98024.66;13047941;22;20496;-52
2022/01/15 09:45:14;;;;;;;11.88;3.05;;;;;;;20.29;42.37;98031.06;13047468;22;20087;-53
2022/01/15 09:50:42;;;;;;;6.22;3.08;;;;;;;20.31;41.84;98024.25;13047910;22;20019;-52
2022/01/15 09:56:06;;;;;;;;;;;;;;;20.33;41.87;98037.47;13069182;22;20016;-52
2022/01/15 10:01:31;;;;;;;4.80;3.03;;;;;;;20.35;41.92;98025.25;13046648;22;19918;-52
2022/01/15 10:07:10;;;;;;;8.30;2.80;;;;;;;20.38;42.47;98039.28;13046708;22;20023;-53
2022/01/15 10:12:32;;;;;;;;;;;;;;;20.39;42.95;98030.06;13046941;22;20090;-52
2022/01/15 10:17:51;;;;;;;8.15;2.80;;;;;;;20.41;43.33;98033.28;13068052;22;20278;-51
2022/01/15 10:23:16;;;;;;;6.38;3.00;;;;;;;20.43;43.97;98025.66;13067130;22;20500;-52
2022/01/15 10:29:00;;;;;;;5.80;3.35;;;;;;;20.45;44.79;98018.03;13046088;22;20019;-52
2022/01/15 10:34:28;;;;;;;12.82;4.28;;;;;;;20.47;44.33;98010.44;13046030;22;20019;-52
2022/01/15 10:40:03;;;;;;;7.85;3.45;;;;;;;20.47;43.37;98015.84;13046381;22;20461;-52
2022/01/15 10:45:24;;;;;;;6.03;3.40;;;;;;;20.47;43.55;98015.84;13067018;22;20029;-52
2022/01/15 10:50:55;;;;;;;7.40;3.20;;;;;;;20.48;43.36;98012.00;13066753;22;20046;-52
2022/01/15 10:56:16;;;;;;;6.85;3.40;;;;;;;20.49;44.46;98000.09;13043047;22;20053;-51
2022/01/15 11:01:35;;;;;;;10.57;3.88;;;;;;;20.45;41.20;98008.00;13066541;22;20018;-52
2022/01/15 11:06:54;;;;;;;6.60;4.85;;;;;;;19.86;31.46;98001.53;13044529;22;20022;-52
2022/01/15 11:12:14;;;;;;;4.18;3.78;;;;;;;19.93;38.44;98008.16;13021811;22;20019;-51
2022/01/15 11:17:34;;;;;;;8.27;3.55;;;;;;;20.08;38.18;97988.13;13045321;22;20127;-51
2022/01/15 11:22:54;;;;;;;6.72;2.95;;;;;;;20.20;39.62;97978.72;13064960;22;20015;-52
2022/01/15 11:28:14;;;;;;;5.75;2.97;;;;;;;20.26;40.56;97967.50;13063283;22;20076;-53
2022/01/15 11:33:36;;;;;;;7.50;3.28;;;;;;;20.31;41.52;97964.72;13041899;22;20019;-53
2022/01/15 11:38:55;;;;;;;6.18;3.30;;;;;;;20.26;39.68;97964.00;13016258;22;20012;-53
2022/01/15 11:44:22;;;;;;;6.97;3.58;;;;;;;20.32;40.75;97962.81;13039254;22;20334;-53
2022/01/15 11:49:47;;;;;;;6.35;4.53;;;;;;;19.94;32.46;97949.47;13016837;22;20093;-53
2022/01/15 11:55:09;;;;;;;5.07;3.90;;;;;;;19.98;37.28;97950.47;13038590;22;20097;-53
2022/01/15 12:00:30;;;;;;;5.57;3.17;;;;;;;20.09;37.73;97945.66;13063515;22;20015;-53
2022/01/15 12:05:59;;;;;;;7.88;3.40;;;;;;;20.03;34.93;97927.91;13042197;22;20455;-53
2022/01/15 12:11:30;;;;;;;7.50;3.17;;;;;;;20.06;37.63;97930.03;13043808;22;20016;-52
2022/01/15 12:16:49;;;;;;;6.10;2.97;;;;;;;20.12;38.59;97926.91;13044846;22;20016;-53
2022/01/15 12:22:40;;;;;;;7.00;2.85;;;;;;;20.18;39.10;97916.81;13045944;22;20020;-55
2022/01/15 12:28:06;;;;;;;6.13;2.58;;;;;;;20.20;39.69;97911.88;13044453;22;20011;-55
2022/01/15 12:33:25;;;;;;;5.30;2.90;;;;;;;20.24;40.01;97907.47;13044962;22;20400;-52
2022/01/15 12:38:50;;;;;;;6.72;3.17;;;;;;;20.22;38.29;97898.84;13044692;22;20082;-52
2022/01/15 12:44:09;;;;;;;3.47;2.70;;;;;;;20.00;37.13;97893.38;13040228;22;20555;-52
2022/01/15 12:49:55;;;;;;;3.38;2.70;;;;;;;20.06;38.50;97892.97;13044913;22;20012;-52
2022/01/15 12:55:15;;;;;;;3.75;2.65;;;;;;;20.10;39.02;97883.13;13048645;22;20021;-52
2022/01/15 13:00:37;;;;;;;4.95;3.30;;;;;;;20.13;39.52;97879.00;13044493;22;20104;-51
2022/01/15 13:06:01;;;;;;;4.25;3.28;;;;;;;20.16;39.97;97881.13;13047227;22;20025;-52
2022/01/15 13:11:23;;;;;;;17.85;4.00;;;;;;;20.16;40.33;97870.31;13069397;22;20446;-51
2022/01/15 13:16:43;;;;;;;3.33;3.03;;;;;;;20.17;40.67;97863.81;13047414;22;20015;-52
2022/01/15 13:22:02;;;;;;;4.00;2.80;;;;;;;20.19;40.87;97858.06;13066432;22;20094;-52
2022/01/15 13:27:22;;;;;;;3.58;2.90;;;;;;;20.20;41.14;97852.38;13042040;22;20011;-54
2022/01/15 13:32:56;;;;;;;4.53;2.70;;;;;;;20.22;41.42;97852.06;13044059;22;20026;-52
2022/01/15 13:38:16;;;;;;;4.00;2.55;;;;;;;20.21;41.86;97843.16;13042907;22;20068;-52
2022/01/15 13:43:38;;;;;;;3.72;2.70;;;;;;;20.22;42.27;97835.84;13042196;22;20090;-53
2022/01/15 13:49:00;;;;;;;3.40;2.42;;;;;;;20.19;42.58;97829.13;13020541;22;20015;-53
2022/01/15 13:54:20;;;;;;;2.50;2.25;;;;;;;20.19;42.82;97826.44;13064379;22;20015;-50
2022/01/15 13:59:40;;;;;;;4.32;2.50;;;;;;;20.18;43.16;97819.41;13041718;22;20421;-52
2022/01/15 14:05:10;;;;;;;3.92;2.67;;;;;;;20.18;43.45;97813.19;13056495;22;20029;-52
2022/01/15 14:10:29;;;;;;;3.47;2.50;;;;;;;20.15;43.45;97815.41;13042982;22;20015;-52
2022/01/15 14:15:49;;;;;;;3.45;2.35;;;;;;;20.15;43.52;97815.41;13044212;22;20363;-52
2022/01/15 14:21:28;;;;;;;3.40;2.10;;;;;;;20.17;43.92;97812.41;13045006;22;20025;-50
2022/01/15 14:26:53;;;;;;;5.90;3.35;;;;;;;20.11;39.32;97806.31;13043057;22;20017;-52
2022/01/15 14:32:12;;;;;;;5.05;2.28;;;;;;;20.08;41.85;97814.22;13064329;22;20446;-52
2022/01/15 14:37:32;;;;;;;2.40;2.20;;;;;;;20.07;42.53;97807.19;13043239;22;20377;-52
2022/01/15 14:42:52;;;;;;;2.30;1.95;;;;;;;20.08;42.61;97806.09;13041868;22;20023;-52
2022/01/15 14:48:12;;;;;;;2.40;1.92;;;;;;;20.06;42.90;97809.09;13062752;22;20030;-54
2022/01/15 14:53:31;;;;;;;2.67;1.90;;;;;;;20.09;43.11;97799.56;13041309;22;20019;-53
2022/01/15 14:58:52;;;;;;;4.72;2.10;;;;;;;20.08;43.27;97795.28;13019820;22;20068;-53
2022/01/15 15:04:12;;;;;;;3.28;1.70;;;;;;;20.08;43.22;97789.88;13042890;22;20023;-50
2022/01/15 15:09:31;;;;;;;2.72;1.73;;;;;;;20.07;43.28;97783.66;13064852;22;20023;-53
2022/01/15 15:14:51;;;;;;;2.90;1.73;;;;;;;20.05;43.08;97779.63;13042582;22;20019;-53
2022/01/15 15:20:13;;;;;;;4.25;1.83;;;;;;;20.03;43.22;97784.56;13043150;22;20015;-54
2022/01/15 15:25:32;;;;;;;3.00;1.90;;;;;;;20.01;43.17;97779.44;13042880;22;20381;-52
2022/01/15 15:30:53;;;;;;;2.25;1.70;;;;;;;20.00;43.05;97771.66;13041511;22;20034;-52
2022/01/15 15:36:14;;;;;;;2.50;1.58;;;;;;;19.99;43.08;97775.44;13042710;22;20517;-53
2022/01/15 15:41:34;;;;;;;2.08;1.55;;;;;;;19.98;43.11;97779.28;13063548;22;20084;-53
2022/01/15 15:46:54;;;;;;;4.05;1.80;;;;;;;19.97;42.88;97772.25;13043334;22;20365;-52
2022/01/15 15:52:14;;;;;;;4.43;1.85;;;;;;;19.95;42.88;97767.13;13064153;22;20021;-53
2022/01/15 15:57:35;;;;;;;3.22;1.80;;;;;;;19.92;42.37;97763.13;13043218;22;20019;-54
2022/01/15 16:02:54;;;;;;;4.97;1.80;;;;;;;19.91;42.41;97769.63;13041022;22;20019;-53
2022/01/15 16:08:14;;;;;;;3.33;2.10;;;;;;;19.91;42.53;97766.16;13039681;22;20048;-53
2022/01/15 16:13:34;;;;;;;4.03;2.00;;;;;;;19.90;42.90;97770.75;13042019;22;20019;-53
2022/01/15 16:18:54;;;;;;;2.85;1.70;;;;;;;19.89;43.21;97769.16;13063189;22;20018;-51
2022/01/15 16:24:13;;;;;;;2.63;1.77;;;;;;;19.89;43.35;97781.88;13063925;22;20019;-53
2022/01/15 16:29:35;;;;;;;2.35;1.90;;;;;;;19.87;43.32;97771.34;13049867;22;20025;-54
2022/01/15 16:34:54;;;;;;;3.17;1.70;;;;;;;19.86;43.35;97768.97;13068957;22;20118;-54
2022/01/15 16:40:15;;;;;;;3.17;1.83;;;;;;;19.85;43.42;97770.06;13048809;22;20015;-52
2022/01/15 16:45:34;;;;;;;2.22;1.98;;;;;;;19.82;43.59;97757.97;13069851;22;20042;-54
2022/01/15 16:50:54;;;;;;;2.88;1.73;;;;;;;19.81;43.74;97761.75;13049094;22;20350;-54
2022/01/15 16:56:13;;;;;;;3.80;1.90;;;;;;;19.81;43.90;97766.38;13048467;22;20022;-53
2022/01/15 17:01:33;;;;;;;2.97;1.77;;;;;;;19.79;43.54;97761.25;13048298;22;20022;-53
2022/01/15 17:06:52;;;;;;;3.20;1.60;;;;;;;19.78;43.64;97754.25;13045767;22;20019;-53
2022/01/15 17:12:12;;;;;;;3.42;1.80;;;;;;;19.77;43.54;97747.22;13042834;22;20016;-53
2022/01/15 17:17:34;;;;;;;4.03;2.05;;;;;;;19.75;43.48;97752.16;13065072;22;20022;-51
2022/01/15 17:22:53;;;;;;;5.55;2.15;;;;;;;19.74;43.80;97743.25;13065360;22;20019;-52
2022/01/15 17:28:13;;;;;;;3.63;1.95;;;;;;;19.72;43.93;97747.34;13066488;22;20023;-50
2022/01/15 17:33:37;;;;;;;3.40;2.58;;;;;;;19.71;43.72;97737.59;13046728;22;20526;-53
2022/01/15 17:38:57;;;;;;;5.93;3.20;;;;;;;19.69;43.71;97747.91;13045302;22;20623;-52
2022/01/15 17:44:17;;;;;;;4.85;2.53;;;;;;;19.68;43.63;97735.50;13067784;22;20021;-52
2022/01/15 17:49:36;;;;;;;5.28;3.20;;;;;;;19.67;42.92;97734.69;13043111;22;20501;-53
2022/01/15 17:54:56;;;;;;;4.10;3.20;;;;;;;19.65;42.93;97731.50;13042325;22;20343;-55
2022/01/15 18:00:16;;;;;;;11.50;7.30;;;;;;;19.65;42.50;97723.38;13068983;22;20021;-53
2022/01/15 18:05:35;;;;;;;14.07;11.23;;;;;;;19.47;38.52;97725.09;13047105;22;20037;-54
2022/01/15 18:10:55;;;;;;;7.85;5.68;;;;;;;19.46;41.60;97711.88;13050198;22;20450;-54
2022/01/15 18:16:15;;;;;;;8.27;5.63;;;;;;;19.49;42.38;97720.19;13049616;22;20748;-55
2022/01/15 18:21:34;;;;;;;13.95;8.77;;;;;;;19.41;39.08;97723.59;13046468;22;20042;-53
2022/01/15 18:26:54;;;;;;;9.13;7.00;;;;;;;19.42;41.55;97722.50;13067914;22;20030;-53
2022/01/15 18:32:13;;;;;;;6.60;5.95;;;;;;;19.42;42.35;97714.38;13041556;22;20016;-54
2022/01/15 18:37:36;;;;;;;8.63;6.22;;;;;;;19.43;42.52;97713.31;13044945;22;20022;-54
2022/01/15 18:42:55;;;;;;;11.90;5.60;;;;;;;19.44;42.98;97723.00;13046497;22;20015;-54
2022/01/15 18:48:15;;;;;;;8.25;5.53;;;;;;;19.44;43.00;97723.00;13060750;22;20019;-54
2022/01/15 18:53:34;;;;;;;9.65;5.95;;;;;;;19.46;43.19;97733.50;13044729;22;20026;-55
2022/01/15 18:58:55;;;;;;;12.45;8.10;;;;;;;19.46;43.46;97731.59;13044660;22;20019;-55
2022/01/15 19:04:14;;;;;;;8.45;5.80;;;;;;;19.46;43.34;97722.69;13042706;22;20061;-54
2022/01/15 19:09:38;;;;;;;7.65;5.63;;;;;;;19.46;43.64;97744.31;13041493;22;20039;-54
2022/01/15 19:14:58;;;;;;;6.47;5.38;;;;;;;19.45;43.59;97765.16;13043538;22;20611;-53
2022/01/15 19:20:19;;;;;;;6.78;5.03;;;;;;;19.46;43.68;97803.78;13063375;22;20019;-53
2022/01/15 19:25:39;;;;;;;7.03;4.75;;;;;;;19.44;44.04;97833.00;13044985;22;20015;-54
2022/01/15 19:30:59;;;;;;;32.90;5.38;;;;;;;19.43;43.52;97748.44;13043543;22;20022;-54
2022/01/15 19:36:19;;;;;;;8.40;4.60;;;;;;;19.41;43.60;97720.91;13043565;22;20339;-55
2022/01/15 19:41:39;;;;;;;6.00;4.65;;;;;;;19.40;44.04;97716.59;13065660;22;20685;-55
2022/01/15 19:46:58;;;;;;;8.70;4.68;;;;;;;19.38;43.97;97712.59;13065230;22;20026;-55
2022/01/15 19:52:18;;;;;;;5.82;4.78;;;;;;;19.37;44.05;97655.06;13042493;22;20090;-52
2022/01/15 19:57:38;;;;;;;6.82;4.75;;;;;;;19.35;44.04;97622.16;13043395;22;20111;-53
2022/01/15 20:02:58;;;;;;;7.47;5.20;;;;;;;19.34;44.07;97602.41;13059339;22;20458;-53
2022/01/15 20:08:17;;;;;;;6.82;4.53;;;;;;;19.33;44.05;97672.97;13044076;22;20094;-50
2022/01/15 20:13:37;;;;;;;5.65;4.60;;;;;;;19.32;44.10;97664.06;13043753;22;20016;-53
2022/01/15 20:18:57;;;;;;;6.88;4.45;;;;;;;19.30;44.11;97666.25;13065593;22;20018;-53
2022/01/15 20:24:17;;;;;;;6.78;4.80;;;;;;;19.29;44.17;97682.78;13066204;22;20459;-52
2022/01/15 20:29:36;;;;;;;8.20;4.90;;;;;;;19.27;44.25;97676.88;13044467;22;20023;-53
2022/01/15 20:34:56;;;;;;;7.53;5.03;;;;;;;19.27;44.49;97633.66;13042289;22;20362;-55
2022/01/15 20:40:16;;;;;;;6.60;4.95;;;;;;;19.27;44.66;97649.88;13040821;22;20019;-52
2022/01/15 20:45:36;;;;;;;8.10;4.90;;;;;;;19.27;44.45;97614.75;13042651;22;20015;-51
2022/01/15 20:50:56;;;;;;;11.93;5.25;;;;;;;19.27;44.45;97622.88;13043213;22;20015;-54
2022/01/15 20:56:17;;;;;;;11.55;5.50;;;;;;;19.26;44.64;97637.47;13064858;22;20015;-54
2022/01/15 21:01:37;;;;;;;9.65;5.70;;;;;;;19.24;44.64;97659.38;13043009;22;20312;-51
2022/01/15 21:06:57;;;;;;;8.10;5.65;;;;;;;19.23;44.78;97654.25;13064091;22;20064;-53
2022/01/15 21:12:16;;;;;;;11.52;6.00;;;;;;;19.22;44.66;97663.47;13046928;22;20469;-52
2022/01/15 21:17:36;;;;;;;9.30;6.05;;;;;;;19.22;44.73;97660.78;13046538;22;20038;-53
2022/01/15 21:22:56;;;;;;;10.00;6.00;;;;;;;19.21;44.74;97626.75;13068332;22;20011;-54
2022/01/15 21:28:16;;;;;;;10.75;6.35;;;;;;;19.20;44.59;97619.75;13047253;22;20012;-55
2022/01/15 21:33:37;;;;;;;10.02;6.07;;;;;;;19.19;44.69;97618.16;13067510;22;20015;-55
2022/01/15 21:38:56;;;;;;;10.63;6.38;;;;;;;19.17;44.58;97624.66;13046877;22;20080;-56
2022/01/15 21:44:16;;;;;;;14.13;6.07;;;;;;;19.16;44.64;97616.84;13046636;22;20015;-55
2022/01/15 21:49:35;;;;;;;11.73;7.45;;;;;;;19.16;44.89;97614.94;13066227;22;20019;-54
2022/01/15 21:54:55;;;;;;;11.00;6.45;;;;;;;19.14;44.80;97614.44;13045465;22;20504;-51
2022/01/15 22:00:18;;;;;;;10.73;7.18;;;;;;;19.13;44.75;97610.16;13045016;22;20039;-53
2022/01/15 22:05:37;;;;;;;12.00;7.15;;;;;;;19.13;44.71;97602.06;13066120;22;20469;-52
2022/01/15 22:10:58;;;;;;;11.02;6.70;;;;;;;19.11;44.88;97604.25;13041880;22;20019;-51
2022/01/15 22:16:19;;;;;;;12.68;7.60;;;;;;;19.12;45.29;97619.34;13014875;22;20032;-53
2022/01/15 22:21:39;;;;;;;10.95;7.05;;;;;;;19.12;44.96;97607.75;13041582;22;20072;-54
2022/01/15 22:26:59;;;;;;;11.88;6.80;;;;;;;19.11;44.97;97604.25;13045040;22;20015;-54
2022/01/15 22:32:20;;;;;;;11.82;6.90;;;;;;;19.11;45.07;97595.34;13066004;22;20114;-53
2022/01/15 22:37:39;;;;;;;10.70;6.68;;;;;;;19.10;44.97;97597.25;13064975;22;20036;-53
2022/01/15 22:42:58;;;;;;;11.40;7.13;;;;;;;19.08;44.79;97594.06;13065734;22;20019;-54
2022/01/15 22:48:18;;;;;;;10.25;6.70;;;;;;;19.07;44.91;97587.06;13044641;22;20063;-54
2022/01/15 22:53:39;;;;;;;9.73;6.47;;;;;;;19.07;44.87;97597.03;13044514;22;20015;-53
2022/01/15 22:58:59;;;;;;;10.52;6.80;;;;;;;19.06;44.66;97593.56;13043941;22;20591;-52
2022/01/15 23:04:18;;;;;;;12.50;6.60;;;;;;;19.05;44.73;97575.75;13020899;22;20459;-54
2022/01/15 23:09:38;;;;;;;11.43;6.85;;;;;;;19.03;44.64;97577.94;13044041;22;20331;-53
2022/01/15 23:20:41;;;;;;;9.27;6.07;;;;;;;19.01;44.57;97582.84;12992094;22;20072;-54
2022/01/15 23:26:00;;;;;;;10.98;6.28;;;;;;;18.99;44.53;97563.44;13043031;22;20025;-54
2022/01/15 23:31:19;;;;;;;9.05;6.03;;;;;;;18.98;44.59;97558.38;13045065;22;20501;-53
2022/01/15 23:36:39;;;;;;;8.77;5.90;;;;;;;18.97;44.66;97530.53;13045131;22;20011;-53
2022/01/15 23:41:58;;;;;;;9.45;6.32;;;;;;;18.96;44.57;97534.38;13045788;22;20023;-53
2022/01/15 23:47:18;;;;;;;10.85;6.45;;;;;;;18.94;44.50;97556.25;13045152;22;20018;-54
2022/01/15 23:52:37;;;;;;;11.93;6.50;;;;;;;18.93;44.49;97548.47;13045973;22;20040;-54
2022/01/15 23:57:57;;;;;;;9.88;6.18;;;;;;;18.91;44.45;97537.16;13066493;22;20023;-54
